Time;durP1;ratioP1;P1;durP2;ratioP2;P2;SDS_P1;SDS_P2;PMS_P1;PMS_P2;Temp;Humidity;BMP_temperature;BMP_pressure;BME280_temperature;BME280_humidity;BME280_pressure;Samples;Min_cycle;Max_cycle;Signal;HPM_P1;HPM_P2
2023/02/21 02:14:59;;;;;;;1.60;0.43;;;7.70;99.90;;;;;;5091427;28;20459;-60
2023/02/21 02:17:43;;;;;;;1.20;0.43;;;7.70;99.90;;;;;;5094166;28;20876;-61
2023/02/21 02:21:01;;;;;;;0.70;0.40;;;7.70;99.90;;;;;;5094985;28;20441;-58
2023/02/21 02:23:49;;;;;;;0.90;0.40;;;7.70;99.90;;;;;;5026641;28;20438;-59
2023/02/21 02:26:50;;;;;;;2.00;0.40;;;7.70;99.90;;;;;;5076907;28;20433;-58
2023/02/21 02:29:39;;;;;;;1.37;0.40;;;7.70;99.90;;;;;;5094178;28;20852;-58
2023/02/21 02:32:45;;;;;;;1.35;0.50;;;7.60;99.90;;;;;;5084939;28;20434;-58
2023/02/21 02:35:14;;;;;;;0.80;0.50;;;7.60;99.90;;;;;;5093355;28;20433;-58
2023/02/21 02:37:48;;;;;;;0.77;0.40;;;7.60;99.90;;;;;;5093995;28;20421;-58
2023/02/21 02:40:23;;;;;;;0.70;0.40;;;7.70;99.90;;;;;;5088005;28;20477;-58
2023/02/21 02:43:01;;;;;;;0.80;0.50;;;7.70;99.90;;;;;;5097911;28;20915;-58
2023/02/21 02:45:33;;;;;;;0.90;0.43;;;7.70;99.90;;;;;;5097059;28;20436;-58
2023/02/21 02:48:07;;;;;;;0.73;0.40;;;7.70;99.90;;;;;;5097890;28;20413;-58
2023/02/21 02:50:38;;;;;;;1.60;0.40;;;7.80;99.90;;;;;;5091192;28;20430;-58
2023/02/21 02:53:05;;;;;;;0.90;0.50;;;7.70;99.90;;;;;;5098388;28;20416;-58
2023/02/21 02:55:41;;;;;;;0.77;0.50;;;7.60;99.90;;;;;;5097934;28;20425;-58
2023/02/21 02:58:10;;;;;;;0.60;0.40;;;7.60;99.90;;;;;;5095717;28;20439;-58
2023/02/21 03:00:40;;;;;;;1.35;0.40;;;7.50;99.90;;;;;;5096893;28;20840;-58
2023/02/21 03:03:36;;;;;;;0.70;0.40;;;7.50;99.90;;;;;;5098122;28;20713;-59
2023/02/21 03:06:21;;;;;;;1.80;0.50;;;7.60;99.90;;;;;;5097515;28;20713;-58
2023/02/21 03:08:57;;;;;;;0.60;0.40;;;7.60;99.90;;;;;;5090140;28;20439;-59
2023/02/21 03:11:26;;;;;;;1.20;0.40;;;7.70;99.90;;;;;;5097336;28;20813;-59
2023/02/21 03:13:59;;;;;;;0.82;0.40;;;7.80;99.90;;;;;;5097636;28;20725;-60
2023/02/21 03:16:29;;;;;;;0.70;0.40;;;7.90;99.90;;;;;;5096669;28;20529;-59
2023/02/21 03:19:01;;;;;;;1.50;0.50;;;7.90;99.90;;;;;;5089891;28;20430;-58
2023/02/21 03:21:34;;;;;;;0.80;0.45;;;7.80;99.90;;;;;;5097616;28;20429;-60
2023/02/21 03:24:04;;;;;;;1.30;0.40;;;7.80;99.90;;;;;;5097926;28;20742;-58
2023/02/21 03:26:34;;;;;;;1.17;0.40;;;7.80;99.90;;;;;;5091469;28;20444;-58
2023/02/21 03:29:03;;;;;;;0.60;0.40;;;7.80;99.90;;;;;;5096875;28;20764;-58
2023/02/21 03:31:35;;;;;;;0.75;0.40;;;7.90;99.90;;;;;;5096810;28;20516;-59
2023/02/21 03:34:02;;;;;;;1.77;0.60;;;7.90;99.90;;;;;;5097562;28;20434;-58
2023/02/21 03:36:31;;;;;;;0.80;0.50;;;7.90;99.90;;;;;;5093556;28;20433;-58
2023/02/21 03:38:58;;;;;;;0.80;0.50;;;7.80;99.90;;;;;;5097457;28;20853;-58
2023/02/21 03:41:25;;;;;;;0.80;0.50;;;7.70;99.90;;;;;;5097544;28;20434;-59
2023/02/21 03:43:52;;;;;;;0.80;0.50;;;7.70;99.90;;;;;;5092267;28;20435;-59
2023/02/21 03:46:19;;;;;;;1.10;0.50;;;7.60;99.90;;;;;;5094495;28;20422;-59
2023/02/21 03:48:46;;;;;;;1.20;0.60;;;7.50;99.90;;;;;;5096869;28;20422;-59
2023/02/21 03:51:13;;;;;;;1.40;0.60;;;7.50;99.90;;;;;;5097463;28;20414;-59
2023/02/21 03:53:42;;;;;;;1.10;0.53;;;7.30;99.90;;;;;;5089472;28;20520;-58
2023/02/21 03:56:09;;;;;;;1.15;0.60;;;7.10;99.90;;;;;;5096635;28;20426;-58
2023/02/21 03:58:36;;;;;;;0.88;0.50;;;7.10;99.90;;;;;;5096641;28;20433;-58
2023/02/21 04:01:03;;;;;;;1.70;0.60;;;7.00;99.90;;;;;;5096350;28;20912;-58
2023/02/21 04:03:30;;;;;;;0.90;0.60;;;7.10;99.90;;;;;;5092242;28;20857;-58
2023/02/21 04:05:57;;;;;;;1.10;0.60;;;7.20;99.90;;;;;;5095921;28;20433;-59
2023/02/21 04:08:25;;;;;;;2.00;0.57;;;7.20;99.90;;;;;;5095978;28;20418;-59
2023/02/21 04:10:53;;;;;;;1.90;0.70;;;7.20;99.90;;;;;;5094568;28;20414;-59
2023/02/21 04:13:22;;;;;;;1.10;0.60;;;7.20;99.90;;;;;;5090277;28;20841;-59
2023/02/21 04:15:49;;;;;;;1.75;0.70;;;7.20;99.90;;;;;;5095036;28;20504;-59
2023/02/21 04:18:17;;;;;;;1.00;0.60;;;7.20;99.90;;;;;;5095564;28;20429;-59
2023/02/21 04:20:45;;;;;;;1.85;0.70;;;7.10;99.90;;;;;;5089671;28;20435;-59
2023/02/21 04:23:12;;;;;;;1.50;0.70;;;7.00;99.90;;;;;;5095048;28;20424;-59
2023/02/21 04:25:39;;;;;;;1.30;0.60;;;7.00;99.90;;;;;;5094708;28;20441;-58
2023/02/21 04:28:08;;;;;;;1.77;0.70;;;7.00;99.90;;;;;;5095629;28;20491;-59
2023/02/21 04:30:35;;;;;;;1.08;0.63;;;7.10;99.90;;;;;;5090009;28;20450;-60
2023/02/21 04:33:02;;;;;;;3.00;0.70;;;7.00;99.90;;;;;;5095152;28;20432;-60
2023/02/21 04:35:29;;;;;;;1.90;0.70;;;7.10;99.90;;;;;;5094937;28;20752;-60
2023/02/21 04:37:56;;;;;;;2.63;0.90;;;7.00;99.90;;;;;;5095550;28;20422;-59
2023/02/21 04:40:23;;;;;;;3.00;0.90;;;7.10;99.90;;;;;;5093304;28;20441;-58
2023/02/21 04:42:50;;;;;;;1.50;0.80;;;7.10;99.90;;;;;;5096090;28;20421;-58
2023/02/21 04:45:19;;;;;;;1.75;0.70;;;7.10;99.90;;;;;;5094693;28;20429;-58
2023/02/21 04:47:46;;;;;;;1.67;0.70;;;7.00;99.90;;;;;;5054371;28;20486;-58
2023/02/21 04:50:14;;;;;;;1.50;0.80;;;7.00;99.90;;;;;;5056202;28;20429;-58
2023/02/21 04:52:41;;;;;;;2.67;0.70;;;6.90;99.90;;;;;;5056105;28;20853;-58
2023/02/21 04:55:09;;;;;;;1.45;0.60;;;6.80;99.90;;;;;;5056053;28;21036;-58
2023/02/21 04:57:36;;;;;;;1.80;0.70;;;6.80;99.90;;;;;;5050869;28;20437;-57
2023/02/21 05:00:06;;;;;;;2.17;0.70;;;6.80;99.90;;;;;;5055494;28;20429;-58
2023/02/21 05:02:35;;;;;;;2.33;0.90;;;6.80;99.90;;;;;;5055873;28;20528;-58
2023/02/21 05:05:02;;;;;;;3.60;0.90;;;6.80;99.90;;;;;;5053533;28;20440;-59
2023/02/21 05:07:29;;;;;;;2.40;0.90;;;6.70;99.90;;;;;;5049020;28;20436;-52
2023/02/21 05:09:56;;;;;;;1.80;0.80;;;6.70;99.90;;;;;;5055230;28;20429;-59
2023/02/21 05:12:23;;;;;;;2.00;1.50;;;6.60;99.90;;;;;;5055006;28;20418;-59
2023/02/21 05:14:50;;;;;;;1.88;1.23;;;6.60;99.90;;;;;;5052186;28;20860;-60
2023/02/21 05:17:17;;;;;;;1.70;0.90;;;6.50;99.90;;;;;;5053482;28;20425;-60
2023/02/21 05:19:47;;;;;;;1.70;1.00;;;6.50;99.90;;;;;;5055043;28;20432;-59
2023/02/21 05:22:19;;;;;;;2.27;1.00;;;6.50;99.90;;;;;;5054660;28;20473;-58
2023/02/21 05:24:47;;;;;;;1.80;0.90;;;6.60;99.90;;;;;;5049202;28;20865;-58
2023/02/21 05:27:15;;;;;;;1.80;0.80;;;6.70;99.90;;;;;;5055268;28;20539;-60
2023/02/21 05:29:42;;;;;;;1.90;0.80;;;6.80;99.90;;;;;;5054530;28;20438;-57
2023/02/21 05:32:09;;;;;;;1.48;0.77;;;6.80;99.90;;;;;;5054504;28;20429;-57
2023/02/21 05:34:36;;;;;;;1.30;0.70;;;6.90;99.90;;;;;;5048419;28;21019;-57
2023/02/21 05:37:05;;;;;;;1.70;0.80;;;7.00;99.90;;;;;;5054157;28;20461;-57
2023/02/21 05:39:32;;;;;;;0.93;0.60;;;7.10;99.90;;;;;;5053141;28;20425;-57
2023/02/21 05:41:59;;;;;;;2.60;0.70;;;7.10;99.90;;;;;;5051511;28;20429;-57
2023/02/21 05:44:26;;;;;;;1.40;0.60;;;7.10;99.90;;;;;;5050211;28;20445;-57
2023/02/21 05:46:53;;;;;;;1.00;0.60;;;7.10;99.90;;;;;;5080156;28;20428;-57
2023/02/21 05:49:20;;;;;;;2.63;0.80;;;7.10;99.90;;;;;;5094933;28;20444;-59
2023/02/21 05:51:47;;;;;;;2.80;0.80;;;7.10;99.90;;;;;;5087928;28;20454;-58
2023/02/21 05:54:18;;;;;;;1.30;0.80;;;7.10;99.90;;;;;;5094842;28;20426;-56
2023/02/21 05:56:47;;;;;;;1.80;1.00;;;7.00;99.90;;;;;;5093986;28;20425;-57
2023/02/21 05:59:15;;;;;;;2.70;0.90;;;6.90;99.90;;;;;;5093679;28;20450;-58
2023/02/21 06:01:43;;;;;;;1.40;0.98;;;6.90;99.90;;;;;;5089625;28;20453;-58
2023/02/21 06:04:10;;;;;;;1.95;0.80;;;6.90;99.90;;;;;;5093996;28;20433;-57
2023/02/21 06:06:37;;;;;;;3.22;0.90;;;6.90;99.90;;;;;;5094462;28;20427;-59
2023/02/21 06:09:04;;;;;;;2.40;0.90;;;7.20;99.90;;;;;;5092081;28;20437;-59
2023/02/21 06:11:36;;;;;;;1.20;0.80;;;7.20;99.90;;;;;;5089092;28;20429;-58
2023/02/21 06:14:05;;;;;;;1.40;0.80;;;7.00;99.90;;;;;;5093505;28;20486;-59
2023/02/21 06:16:33;;;;;;;1.20;0.70;;;6.80;99.90;;;;;;5094477;28;20424;-58
2023/02/21 06:19:01;;;;;;;1.80;1.00;;;6.80;99.90;;;;;;5089533;28;20497;-59
2023/02/21 06:21:29;;;;;;;2.40;0.85;;;6.70;99.90;;;;;;5094835;28;20436;-58
2023/02/21 06:23:56;;;;;;;2.90;1.00;;;6.70;99.90;;;;;;5093764;28;20430;-59
2023/02/21 06:26:23;;;;;;;1.50;0.90;;;6.70;99.90;;;;;;5096063;28;20428;-58
2023/02/21 06:28:52;;;;;;;2.65;0.80;;;6.80;99.90;;;;;;5090861;28;20433;-58
2023/02/21 06:31:20;;;;;;;1.50;0.70;;;6.80;99.90;;;;;;5096029;28;20829;-58
2023/02/21 06:33:48;;;;;;;2.00;0.90;;;6.80;99.90;;;;;;5095323;28;20429;-60
2023/02/21 06:36:17;;;;;;;2.33;0.90;;;6.70;99.90;;;;;;5096529;28;20421;-58
2023/02/21 06:38:45;;;;;;;4.30;0.90;;;6.90;99.90;;;;;;5092428;28;20472;-59
2023/02/21 06:41:15;;;;;;;3.10;0.90;;;6.80;99.90;;;;;;5097923;28;20465;-58
2023/02/21 06:43:42;;;;;;;1.10;0.90;;;6.80;99.90;;;;;;5097066;28;20755;-58
2023/02/21 06:46:15;;;;;;;3.67;1.08;;;7.00;99.90;;;;;;5094244;28;20437;-56
2023/02/21 06:48:42;;;;;;;1.48;0.90;;;7.10;99.90;;;;;;5095570;28;20433;-58
2023/02/21 06:51:10;;;;;;;3.60;1.00;;;7.10;99.90;;;;;;5096568;28;20418;-57
2023/02/21 06:53:37;;;;;;;2.60;1.10;;;7.20;99.90;;;;;;5097364;28;20425;-58
2023/02/21 06:56:05;;;;;;;1.50;0.80;;;7.00;99.90;;;;;;5091431;28;20857;-60
2023/02/21 06:58:32;;;;;;;3.28;1.20;;;6.70;99.90;;;;;;5097706;28;20432;-58
2023/02/21 07:00:59;;;;;;;2.00;1.00;;;6.50;99.90;;;;;;5095640;28;20417;-58
2023/02/21 07:03:28;;;;;;;2.38;0.90;;;6.30;99.90;;;;;;5096735;28;20417;-58
2023/02/21 07:05:55;;;;;;;1.90;1.00;;;6.00;99.90;;;;;;5089994;28;20440;-58
2023/02/21 07:08:23;;;;;;;3.33;0.90;;;5.80;99.90;;;;;;5095422;28;20856;-58
2023/02/21 07:10:50;;;;;;;1.83;0.90;;;5.70;99.90;;;;;;5094808;28;20513;-58
2023/02/21 07:13:18;;;;;;;4.00;0.90;;;5.90;99.90;;;;;;5091702;28;20421;-54
2023/02/21 07:15:46;;;;;;;3.20;1.00;;;5.80;99.90;;;;;;5089897;28;20421;-56
2023/02/21 07:18:13;;;;;;;1.90;0.90;;;5.90;99.90;;;;;;5093607;28;20853;-57
2023/02/21 07:20:42;;;;;;;1.80;0.90;;;6.30;99.90;;;;;;5094398;28;20484;-55
2023/02/21 07:23:09;;;;;;;5.88;0.90;;;6.60;99.90;;;;;;5088534;28;20437;-55
2023/02/21 07:25:36;;;;;;;3.65;1.00;;;6.80;99.90;;;;;;5094236;28;20420;-57
2023/02/21 07:28:03;;;;;;;2.45;0.93;;;6.80;99.90;;;;;;5083687;28;20438;-56
2023/02/21 07:30:31;;;;;;;3.20;1.00;;;7.10;99.90;;;;;;5088661;28;20978;-55
2023/02/21 07:32:58;;;;;;;2.30;1.00;;;7.20;99.90;;;;;;5087105;28;20924;-54
2023/02/21 07:35:25;;;;;;;3.72;1.00;;;7.50;99.90;;;;;;5079075;28;20456;-55
2023/02/21 07:37:53;;;;;;;2.40;1.00;;;7.60;99.90;;;;;;5082142;28;20438;-57
2023/02/21 07:40:21;;;;;;;1.80;1.10;;;7.60;99.90;;;;;;5074233;28;20739;-55
2023/02/21 07:42:48;;;;;;;2.60;1.00;;;7.50;99.90;;;;;;5090626;28;20433;-58
2023/02/21 07:45:16;;;;;;;1.90;1.00;;;7.60;99.90;;;;;;5094763;28;20422;-59
2023/02/21 07:47:44;;;;;;;2.20;1.00;;;7.80;99.90;;;;;;5091460;28;20438;-58
2023/02/21 07:50:11;;;;;;;1.73;0.90;;;7.80;99.90;;;;;;5088763;28;20445;-58
2023/02/21 07:52:38;;;;;;;2.40;0.90;;;7.90;99.90;;;;;;5094521;28;20814;-55
2023/02/21 07:55:07;;;;;;;5.53;0.90;;;8.00;99.90;;;;;;5075175;28;20445;-60
2023/02/21 07:57:34;;;;;;;4.97;1.00;;;8.30;99.90;;;;;;5092566;28;20867;-59
2023/02/21 08:00:03;;;;;;;3.00;1.10;;;8.30;99.90;;;;;;5085712;28;20440;-59
2023/02/21 08:02:30;;;;;;;3.13;1.00;;;8.30;99.90;;;;;;5075353;28;20765;-58
2023/02/21 08:04:57;;;;;;;3.42;0.90;;;8.30;99.90;;;;;;5076284;28;20444;-60
2023/02/21 08:07:24;;;;;;;1.70;1.00;;;8.40;99.90;;;;;;5090637;28;20880;-59
2023/02/21 08:09:51;;;;;;;3.55;1.02;;;8.40;99.90;;;;;;5092334;28;20425;-57
2023/02/21 08:12:20;;;;;;;3.63;1.50;;;8.50;99.90;;;;;;5090708;28;20430;-57
2023/02/21 08:14:47;;;;;;;1.50;1.00;;;8.40;99.90;;;;;;5078357;28;21009;-55
2023/02/21 08:17:14;;;;;;;3.95;1.20;;;8.20;99.90;;;;;;5073552;28;20674;-57
2023/02/21 08:19:41;;;;;;;3.22;1.13;;;8.10;99.90;;;;;;5092436;28;20438;-57
2023/02/21 08:22:08;;;;;;;2.47;1.20;;;8.00;99.90;;;;;;5091233;28;20499;-58
2023/02/21 08:24:35;;;;;;;5.93;1.10;;;8.00;99.90;;;;;;5092569;28;20941;-60
2023/02/21 08:27:02;;;;;;;2.30;1.00;;;8.10;99.90;;;;;;5091309;28;20975;-59
2023/02/21 08:29:31;;;;;;;3.25;1.15;;;8.30;99.90;;;;;;5092572;28;20480;-59
2023/02/21 08:31:58;;;;;;;1.80;1.15;;;8.30;99.90;;;;;;5092487;28;20433;-59
2023/02/21 08:34:28;;;;;;;3.30;0.90;;;8.40;99.90;;;;;;5093207;28;20746;-59
2023/02/21 08:36:55;;;;;;;2.70;1.10;;;8.60;99.90;;;;;;5090056;28;20528;-58
2023/02/21 08:39:22;;;;;;;3.90;1.17;;;8.60;99.90;;;;;;5089165;28;20957;-59
2023/02/21 08:41:51;;;;;;;3.30;1.10;;;8.80;99.90;;;;;;5091952;28;20431;-58
2023/02/21 08:44:21;;;;;;;3.03;1.20;;;8.80;99.90;;;;;;5082385;28;20433;-59
2023/02/21 08:46:50;;;;;;;2.42;1.20;;;8.90;99.90;;;;;;5093837;28;20469;-58
2023/02/21 08:49:17;;;;;;;4.00;1.40;;;9.00;99.90;;;;;;5091823;28;20434;-58
2023/02/21 08:51:44;;;;;;;5.68;1.88;;;9.00;99.90;;;;;;5092893;28;20422;-58
2023/02/21 08:54:11;;;;;;;4.22;1.67;;;9.00;99.90;;;;;;5092170;28;20433;-60
2023/02/21 08:56:38;;;;;;;4.88;1.80;;;9.30;99.90;;;;;;5092335;28;20417;-57
2023/02/21 08:59:08;;;;;;;4.43;1.37;;;9.30;99.90;;;;;;5090897;28;20444;-59
2023/02/21 09:01:36;;;;;;;5.82;1.48;;;9.40;99.90;;;;;;5093407;28;20424;-59
2023/02/21 09:04:05;;;;;;;3.63;1.20;;;9.50;99.90;;;;;;5081596;28;20435;-59
2023/02/21 09:06:33;;;;;;;3.37;1.50;;;9.50;99.90;;;;;;5092080;28;20667;-59
2023/02/21 09:09:01;;;;;;;5.60;1.50;;;9.50;99.90;;;;;;5089588;28;20466;-60
2023/02/21 09:11:28;;;;;;;2.70;1.30;;;9.50;99.90;;;;;;5093344;28;20417;-58
2023/02/21 09:13:55;;;;;;;3.20;1.15;;;9.60;99.90;;;;;;5092247;28;20492;-60
2023/02/21 09:16:22;;;;;;;2.72;1.38;;;9.70;99.90;;;;;;5082405;28;20435;-57
2023/02/21 09:18:57;;;;;;;6.40;1.80;;;9.90;99.90;;;;;;5088174;28;20433;-59
2023/02/21 09:21:26;;;;;;;7.20;1.20;;;10.10;99.90;;;;;;5090256;28;20784;-59
2023/02/21 09:23:57;;;;;;;2.88;1.35;;;10.20;99.90;;;;;;5091833;28;20441;-58
2023/02/21 09:26:25;;;;;;;4.60;1.40;;;10.10;99.90;;;;;;5092860;28;20756;-56
2023/02/21 09:28:53;;;;;;;5.20;1.40;;;10.10;99.90;;;;;;5092520;28;20730;-57
2023/02/21 09:31:20;;;;;;;8.40;3.22;;;10.00;99.90;;;;;;5086035;28;20849;-57
2023/02/21 09:33:47;;;;;;;2.20;1.30;;;10.00;99.90;;;;;;5090488;28;20440;-57
2023/02/21 09:36:17;;;;;;;1.60;1.02;;;10.10;99.90;;;;;;5088368;28;20434;-59
2023/02/21 09:38:45;;;;;;;2.70;1.20;;;10.20;99.90;;;;;;5090050;28;20783;-60
2023/02/21 09:41:14;;;;;;;3.00;1.10;;;10.30;99.90;;;;;;5089353;28;20453;-61
2023/02/21 09:43:45;;;;;;;2.15;1.00;;;10.30;99.90;;;;;;5091198;28;20434;-61
2023/02/21 09:46:17;;;;;;;2.53;0.90;;;10.40;99.90;;;;;;5091247;28;20521;-61
2023/02/21 09:48:48;;;;;;;1.70;1.00;;;10.50;99.90;;;;;;5087133;28;20433;-62
2023/02/21 09:51:17;;;;;;;3.15;1.10;;;10.60;99.90;;;;;;5091042;28;20447;-62
2023/02/21 09:53:48;;;;;;;2.92;1.45;;;10.80;99.90;;;;;;5089633;28;20438;-62
2023/02/21 09:56:26;;;;;;;2.00;1.00;;;11.00;99.90;;;;;;5086997;28;20440;-62
2023/02/21 09:58:54;;;;;;;2.03;1.00;;;11.10;99.90;;;;;;5077075;28;21040;-62
2023/02/21 10:01:27;;;;;;;2.70;1.10;;;11.10;99.90;;;;;;5090776;28;20441;-62
2023/02/21 10:04:04;;;;;;;3.40;1.30;;;11.10;99.90;;;;;;5088973;28;20437;-62
2023/02/21 10:06:39;;;;;;;2.50;1.10;;;11.10;99.90;;;;;;5082024;28;20426;-62
2023/02/21 10:09:21;;;;;;;3.30;1.10;;;11.00;99.90;;;;;;5090967;28;20790;-62
2023/02/21 10:11:59;;;;;;;4.20;1.42;;;11.20;99.90;;;;;;5090346;28;20417;-62
2023/02/21 10:14:37;;;;;;;1.88;0.90;;;11.40;99.90;;;;;;5085709;28;20442;-62
2023/02/21 10:17:16;;;;;;;1.90;1.00;;;11.50;99.90;;;;;;5087195;28;20425;-62
2023/02/21 10:19:47;;;;;;;1.70;1.00;;;11.60;99.90;;;;;;5088017;28;20433;-60
2023/02/21 10:22:18;;;;;;;1.60;1.00;;;11.70;99.90;;;;;;5083809;28;20862;-62
2023/02/21 10:24:48;;;;;;;3.90;1.00;;;11.70;99.90;;;;;;5090555;28;21071;-62
2023/02/21 10:27:19;;;;;;;2.00;1.00;;;11.80;99.90;;;;;;5091903;28;20555;-63
2023/02/21 10:29:54;;;;;;;3.00;0.90;;;11.90;99.90;;;;;;5091104;28;20433;-63
2023/02/21 10:32:22;;;;;;;1.80;0.90;;;11.90;99.90;;;;;;5085110;28;20434;-63
2023/02/21 10:34:49;;;;;;;1.60;1.00;;;11.90;99.90;;;;;;5089972;28;20430;-63
2023/02/21 10:37:33;;;;;;;2.20;0.90;;;11.90;99.90;;;;;;5091616;28;20787;-60
2023/02/21 10:40:06;;;;;;;2.15;0.88;;;11.90;99.90;;;;;;5085704;28;20441;-60
2023/02/21 10:42:39;;;;;;;1.80;0.70;;;12.00;99.90;;;;;;5087360;28;20868;-60
2023/02/21 10:45:12;;;;;;;1.70;0.70;;;12.10;99.90;;;;;;5082842;28;20427;-60
2023/02/21 10:47:52;;;;;;;1.88;0.80;;;12.20;99.90;;;;;;5090243;28;20699;-60
2023/02/21 10:50:41;;;;;;;1.42;0.90;;;12.20;99.90;;;;;;5085859;28;20943;-60
2023/02/21 10:53:09;;;;;;;1.25;0.70;;;12.30;99.90;;;;;;5089848;28;20434;-61
2023/02/21 10:55:38;;;;;;;1.70;0.70;;;12.50;99.90;;;;;;5088460;28;20791;-61
2023/02/21 10:58:10;;;;;;;1.42;0.80;;;12.80;99.90;;;;;;5088998;28;20444;-60
2023/02/21 11:00:40;;;;;;;4.20;1.00;;;13.00;99.90;;;;;;5082119;28;20436;-59
2023/02/21 11:03:20;;;;;;;1.40;0.90;;;13.40;99.90;;;;;;5073020;28;20730;-59
2023/02/21 11:05:50;;;;;;;1.20;0.90;;;13.60;99.90;;;;;;5082086;28;20437;-60
2023/02/21 11:08:35;;;;;;;2.53;0.90;;;13.80;99.90;;;;;;5083446;28;20435;-61
2023/02/21 11:11:04;;;;;;;1.90;1.20;;;14.00;99.90;;;;;;5092514;28;20436;-61
2023/02/21 11:13:33;;;;;;;1.90;0.90;;;14.20;99.90;;;;;;5094656;28;20418;-60
2023/02/21 11:16:10;;;;;;;1.60;1.10;;;14.40;99.90;;;;;;5092806;28;20481;-60
2023/02/21 11:18:37;;;;;;;2.67;0.90;;;14.60;99.90;;;;;;5091160;28;20441;-60
2023/02/21 11:21:12;;;;;;;2.15;0.90;;;14.70;99.90;;;;;;5090948;28;20441;-65
2023/02/21 11:23:45;;;;;;;1.52;0.95;;;14.80;99.90;;;;;;5090901;28;20426;-60
2023/02/21 11:26:15;;;;;;;1.88;1.05;;;14.80;99.90;;;;;;5074705;28;20431;-60
2023/02/21 11:28:45;;;;;;;3.80;1.00;;;15.00;99.90;;;;;;5088901;28;20432;-60
2023/02/21 11:31:27;;;;;;;1.77;0.90;;;15.20;99.90;;;;;;5086485;28;20440;-60
2023/02/21 11:33:58;;;;;;;2.00;1.00;;;15.20;99.90;;;;;;5088536;28;20461;-60
2023/02/21 11:36:29;;;;;;;1.50;0.82;;;15.20;99.90;;;;;;5089649;28;20438;-60
2023/02/21 11:39:06;;;;;;;2.22;1.00;;;15.30;99.90;;;;;;5089139;28;20529;-59
2023/02/21 11:41:44;;;;;;;2.00;0.90;;;15.50;99.90;;;;;;5074222;28;20420;-60
2023/02/21 11:44:26;;;;;;;2.40;1.00;;;15.80;99.90;;;;;;5075607;28;20451;-60
2023/02/21 11:47:06;;;;;;;1.30;0.90;;;16.00;99.90;;;;;;5092902;28;20437;-60
2023/02/21 11:49:42;;;;;;;1.60;1.10;;;16.20;99.90;;;;;;5091978;28;20437;-60
2023/02/21 11:52:13;;;;;;;1.48;0.90;;;16.20;99.90;;;;;;5091272;28;20441;-60
2023/02/21 11:54:40;;;;;;;2.60;1.10;;;16.40;99.90;;;;;;5090954;28;20452;-62
2023/02/21 11:57:15;;;;;;;2.70;1.30;;;16.60;99.90;;;;;;5088233;28;20430;-61
2023/02/21 11:59:48;;;;;;;1.95;0.90;;;16.60;99.90;;;;;;5093274;28;20429;-60
2023/02/21 12:02:47;;;;;;;3.60;1.50;;;16.50;99.90;;;;;;5089974;28;20434;-62
2023/02/21 12:05:41;;;;;;;1.90;1.00;;;16.40;99.90;;;;;;5095353;28;20429;-60
2023/02/21 12:08:43;;;;;;;2.97;1.40;;;16.30;99.90;;;;;;5075790;28;20432;-61
2023/02/21 12:11:33;;;;;;;2.08;1.00;;;16.40;99.90;;;;;;5077006;28;20731;-60
2023/02/21 12:14:14;;;;;;;2.55;0.80;;;16.60;99.90;;;;;;5090414;28;20520;-59
2023/02/21 12:16:53;;;;;;;3.53;2.22;;;16.60;99.90;;;;;;5091922;28;20441;-60
2023/02/21 12:19:55;;;;;;;2.03;0.80;;;16.50;99.90;;;;;;5090389;28;20437;-61
2023/02/21 12:22:35;;;;;;;1.00;0.70;;;16.60;99.90;;;;;;5089665;28;20469;-62
2023/02/21 12:25:11;;;;;;;1.70;0.70;;;16.60;99.90;;;;;;5093309;28;20520;-62
2023/02/21 12:27:49;;;;;;;2.05;0.60;;;16.60;99.90;;;;;;5093505;28;20432;-61
2023/02/21 12:30:49;;;;;;;1.40;0.50;;;16.60;99.90;;;;;;5093095;28;20425;-61
2023/02/21 12:33:30;;;;;;;0.80;0.60;;;16.60;99.70;;;;;;5085804;28;20429;-61
2023/02/21 12:36:23;;;;;;;1.55;0.50;;;16.70;99.00;;;;;;5082623;28;20891;-61
2023/02/21 12:38:59;;;;;;;1.30;0.60;;;16.80;98.30;;;;;;5089163;28;20959;-61
2023/02/21 12:41:54;;;;;;;1.17;0.50;;;16.80;97.90;;;;;;5081298;28;20485;-61
2023/02/21 12:44:24;;;;;;;1.33;0.60;;;16.70;98.50;;;;;;5084414;28;20433;-62
2023/02/21 12:46:57;;;;;;;1.20;0.50;;;16.80;98.10;;;;;;5087240;28;20433;-62
2023/02/21 12:49:31;;;;;;;2.40;0.60;;;16.90;97.80;;;;;;5091447;28;20445;-61
2023/02/21 12:52:03;;;;;;;2.17;0.80;;;17.00;97.70;;;;;;5089044;28;20440;-60
2023/02/21 12:54:43;;;;;;;1.00;0.60;;;16.90;97.90;;;;;;5091471;28;20422;-60
2023/02/21 12:57:13;;;;;;;0.90;0.50;;;16.80;97.80;;;;;;5090878;28;20421;-62
2023/02/21 12:59:51;;;;;;;1.30;0.50;;;17.00;96.60;;;;;;5093083;28;20433;-61
2023/02/21 13:02:25;;;;;;;0.85;0.50;;;17.00;96.90;;;;;;5092406;28;20402;-64
2023/02/21 13:04:58;;;;;;;1.27;0.50;;;16.80;96.00;;;;;;5089998;28;20433;-63
2023/02/21 13:07:32;;;;;;;0.80;0.50;;;16.70;96.30;;;;;;5090434;28;20428;-63
2023/02/21 13:10:06;;;;;;;0.90;0.50;;;16.60;96.30;;;;;;5091219;28;20446;-59
2023/02/21 13:12:40;;;;;;;1.00;0.50;;;16.70;96.20;;;;;;5091361;28;20426;-59
2023/02/21 13:15:19;;;;;;;1.50;0.70;;;16.60;97.10;;;;;;5082889;28;20436;-59
2023/02/21 13:17:56;;;;;;;1.27;0.40;;;16.50;96.20;;;;;;5084419;28;20823;-61
2023/02/21 13:20:27;;;;;;;0.70;0.50;;;16.50;96.10;;;;;;5070749;28;20466;-60
2023/02/21 13:26:22;;;;;;;0.90;0.40;;;16.50;96.00;;;;;;5090841;28;20412;-60
2023/02/21 13:28:53;;;;;;;0.80;0.50;;;16.50;96.00;;;;;;5092789;28;20928;-60
2023/02/21 13:31:22;;;;;;;0.70;0.43;;;16.50;96.00;;;;;;5091692;28;20420;-65
2023/02/21 13:33:52;;;;;;;1.48;0.50;;;16.50;95.90;;;;;;5090925;28;20520;-64
2023/02/21 13:36:25;;;;;;;1.30;0.50;;;16.50;95.20;;;;;;5077279;28;20443;-65
2023/02/21 13:39:10;;;;;;;0.77;0.40;;;16.50;95.30;;;;;;5090586;28;20524;-66
2023/02/21 13:41:41;;;;;;;1.17;0.40;;;16.40;95.20;;;;;;5079052;28;20908;-65
2023/02/21 13:44:17;;;;;;;0.90;0.50;;;16.40;95.10;;;;;;5071657;28;20455;-65
2023/02/21 13:47:12;;;;;;;1.60;0.40;;;16.40;95.10;;;;;;5071252;28;20431;-65
2023/02/21 13:49:54;;;;;;;0.73;0.40;;;16.40;94.80;;;;;;5071879;28;20808;-65
2023/02/21 13:53:01;;;;;;;0.60;0.40;;;16.40;94.50;;;;;;5070613;28;20428;-64
2023/02/21 13:55:33;;;;;;;0.70;0.40;;;16.40;95.30;;;;;;5071600;28;20921;-63
2023/02/21 13:58:32;;;;;;;0.70;0.40;;;16.30;94.80;;;;;;5072448;28;20854;-63
2023/02/21 14:01:33;;;;;;;2.40;0.30;;;16.30;94.70;;;;;;5023824;28;20437;-63
2023/02/21 14:04:20;;;;;;;1.00;0.40;;;16.20;95.00;;;;;;5072417;28;20433;-64
2023/02/21 14:06:56;;;;;;;0.90;0.40;;;16.20;95.30;;;;;;5091255;28;20440;-65
2023/02/21 14:09:26;;;;;;;0.80;0.50;;;16.30;95.00;;;;;;5092213;28;20418;-65
2023/02/21 14:11:56;;;;;;;0.90;0.40;;;16.30;94.60;;;;;;5077531;28;20892;-64
2023/02/21 14:14:30;;;;;;;0.90;0.60;;;16.20;95.00;;;;;;5072048;28;20419;-64
2023/02/21 14:17:05;;;;;;;2.20;0.70;;;16.20;95.50;;;;;;5069808;28;20728;-64
2023/02/21 14:19:37;;;;;;;1.60;0.60;;;16.10;95.80;;;;;;5071672;28;20497;-64
2023/02/21 14:22:12;;;;;;;2.75;0.40;;;16.00;95.60;;;;;;5082365;28;20430;-64
2023/02/21 14:24:43;;;;;;;1.10;0.40;;;16.00;95.20;;;;;;5092391;28;20528;-65
2023/02/21 14:27:33;;;;;;;1.20;0.40;;;16.00;95.20;;;;;;5092244;28;21029;-64
2023/02/21 14:30:33;;;;;;;0.60;0.30;;;16.00;95.20;;;;;;5075408;28;20582;-63
2023/02/21 14:33:21;;;;;;;0.50;0.30;;;16.00;94.70;;;;;;5025263;28;20753;-64
2023/02/21 14:35:59;;;;;;;0.95;0.40;;;16.00;95.50;;;;;;5025788;28;20446;-64
2023/02/21 14:38:29;;;;;;;1.10;0.40;;;15.90;95.50;;;;;;5032006;28;20427;-65
2023/02/21 14:41:16;;;;;;;0.80;0.45;;;15.90;95.60;;;;;;5032734;28;20423;-65
2023/02/21 14:44:04;;;;;;;0.70;0.40;;;15.80;95.80;;;;;;5032696;28;20442;-64
2023/02/21 14:46:52;;;;;;;1.80;0.45;;;15.80;95.30;;;;;;5031268;28;20517;-62
2023/02/21 14:49:59;;;;;;;1.10;0.60;;;15.80;95.70;;;;;;5062474;28;20466;-62
2023/02/21 14:52:59;;;;;;;1.40;0.60;;;15.70;95.70;;;;;;5094073;28;20599;-64
2023/02/21 14:55:34;;;;;;;1.10;0.70;;;15.60;95.90;;;;;;5060176;28;20760;-60
2023/02/21 14:58:31;;;;;;;1.40;0.40;;;15.60;96.00;;;;;;5093355;28;20429;-59
2023/02/21 15:01:10;;;;;;;1.20;0.40;;;15.60;96.40;;;;;;5060413;28;20586;-60
2023/02/21 15:03:45;;;;;;;0.85;0.43;;;15.50;96.30;;;;;;5092720;28;20475;-60
2023/02/21 15:06:18;;;;;;;0.80;0.43;;;15.50;96.40;;;;;;5093752;28;20418;-60
2023/02/21 15:08:47;;;;;;;2.13;0.40;;;15.40;96.50;;;;;;5092179;28;20418;-60
2023/02/21 15:11:28;;;;;;;0.80;0.40;;;15.40;96.60;;;;;;5093428;28;20421;-59
2023/02/21 15:14:22;;;;;;;4.50;1.90;;;15.30;96.30;;;;;;5093336;28;20421;-59
2023/02/21 15:16:55;;;;;;;2.10;0.60;;;15.30;97.30;;;;;;5086957;28;20864;-59
2023/02/21 15:19:28;;;;;;;1.20;0.50;;;15.20;97.00;;;;;;5071813;28;20423;-59
2023/02/21 15:22:20;;;;;;;1.52;0.50;;;15.20;97.30;;;;;;5072134;28;20426;-59
2023/02/21 15:25:15;;;;;;;1.45;0.40;;;15.20;97.00;;;;;;5072120;28;20843;-59
2023/02/21 15:28:07;;;;;;;1.60;0.40;;;15.10;97.20;;;;;;5072260;28;20650;-58
2023/02/21 15:30:38;;;;;;;0.70;0.40;;;15.10;97.50;;;;;;5077504;28;20420;-58
2023/02/21 15:33:15;;;;;;;1.60;0.40;;;15.00;97.60;;;;;;5075494;28;20731;-59
2023/02/21 15:35:46;;;;;;;0.70;0.40;;;15.00;97.90;;;;;;5074980;28;20416;-59
2023/02/21 15:38:19;;;;;;;0.80;0.40;;;14.90;98.20;;;;;;5074367;28;20482;-59
2023/02/21 15:40:48;;;;;;;1.00;0.40;;;14.90;98.40;;;;;;5075519;28;20423;-60